Airfield :
LOGIN :

Register | Disclaimer

   EN    FR    IT 

 










Legend :    VFR   Marginal VFR   IFR   Intensive IFR   Very Intensive IFR
Visi :
Ceiling :
>= 8 km
>= 3000ft
5 to 8 km
1000 to 3000 ft
1500m to 5 km
500 to 1000 ft
800 to 1500m
200 to 500 ft
< 800m
< 200 ft
Symbols :   Thunderstorms  Fog  Heavy snow  Heavy precipitations  Wind > 20 kt
SIGMETs :     Misc.  Thunderstorms  Icing  Turbulence  Mountain Waves  Volcanic Ashes







- Airport Elevation : 157 ft
- IATA code : SXF


EDDB - Berlin Schönefeld

CURRENT METAR :
  • 262050Z 28006KT CAVOK 06/03 Q1026 NOSIG

EXPIRED METARs :
  • 262020Z 28005KT CAVOK 06/02 Q1025 NOSIG
  • 261950Z 30005KT CAVOK 06/02 Q1025 NOSIG
  • 261920Z 30006KT CAVOK 06/02 Q1025 NOSIG
  • 261850Z 29007KT CAVOK 06/02 Q1024 NOSIG
  • 261820Z 30008KT 9999 FEW037 07/02 Q1024 NOSIG

TAF TAF EDDB
Valid from the 26 at 18:00 until the 27 at 18:00 UTC


261700Z 2618/2718 30011KT 9999 BKN030
BECMG 2619/2621 29006KT
BECMG 2706/2708 27012KT
TEMPO 2709/2712 4500 -RA BKN014
TEMPO 2714/2715 27015G25KT
PROB30
TEMPO 2716/2718 4500 -RA BKN013
No reported NOTAMs for that airfield.



MET'MAP, your aeronautical weather chart ! - Copyright ORBIFLY December 2007 - Disclaimer

ORBIFLY MET'MAP TEAM :

Programming & Development : Alexandra Zaïnal
Concept & Development : Baudouin d'Aumeries
Co-Development & Prog : Marc-Olivier Méhu
Technical & hardware support : Manuel Goepfert

Contact : metmap@orbifly.com




SOURCES & CREDITS :

   NOAA